createdAt,value
2023-03-24T00:01:53.896Z,68.82
2023-03-24T00:04:25.466Z,68.51
2023-03-24T00:06:54.804Z,68.31
2023-03-24T00:09:24.919Z,68.28
2023-03-24T00:11:55.110Z,68.76
2023-03-24T00:14:26.092Z,68.91
2023-03-24T00:16:59.100Z,69.80
2023-03-24T00:19:28.342Z,70.21
2023-03-24T00:21:58.299Z,70.34
2023-03-24T00:24:27.686Z,71.55
2023-03-24T00:26:58.347Z,71.40
2023-03-24T00:29:28.758Z,71.38
2023-03-24T00:31:58.206Z,71.54
2023-03-24T00:34:28.824Z,72.05
2023-03-24T00:37:00.015Z,71.98
2023-03-24T00:39:29.467Z,71.72
2023-03-24T00:41:59.175Z,72.02
2023-03-24T00:44:28.785Z,72.23
2023-03-24T00:46:58.164Z,71.72
2023-03-24T00:49:45.475Z,72.18
2023-03-24T00:52:21.029Z,72.15
2023-03-24T00:54:55.675Z,71.73
2023-03-24T00:57:27.575Z,71.29
2023-03-24T00:59:58.155Z,71.42
2023-03-24T01:02:29.325Z,71.47
2023-03-24T01:05:02.804Z,71.51
2023-03-24T01:07:34.000Z,70.97
2023-03-24T01:10:05.412Z,71.54
2023-03-24T01:12:39.842Z,71.57
2023-03-24T01:15:16.417Z,71.86
2023-03-24T01:17:49.286Z,71.96
2023-03-24T01:20:18.950Z,72.11
2023-03-24T01:22:49.331Z,71.84
2023-03-24T01:25:22.054Z,72.10
2023-03-24T01:27:54.049Z,72.19
2023-03-24T01:30:25.644Z,72.60
2023-03-24T01:32:57.713Z,72.98
2023-03-24T01:35:30.013Z,73.10
2023-03-24T01:38:01.986Z,73.27
2023-03-24T01:40:34.303Z,73.49
2023-03-24T01:43:28.077Z,73.34
2023-03-24T01:46:06.726Z,72.76
2023-03-24T01:48:53.274Z,73.01
2023-03-24T01:51:42.751Z,73.40
2023-03-24T01:54:28.054Z,73.67
2023-03-24T01:57:12.767Z,73.51
2023-03-24T01:59:48.992Z,74.36
2023-03-24T02:02:43.170Z,74.02
2023-03-24T02:05:15.791Z,73.54
2023-03-24T02:07:56.408Z,74.14
2023-03-24T02:10:26.586Z,73.55
2023-03-24T02:12:56.743Z,74.15
2023-03-24T02:15:29.972Z,74.26
2023-03-24T02:18:30.350Z,74.27
2023-03-24T02:21:33.334Z,73.14
2023-03-24T02:24:33.070Z,74.25
2023-03-24T02:27:31.573Z,73.99
2023-03-24T02:30:11.281Z,74.60
2023-03-24T02:33:25.530Z,74.11
2023-03-24T02:36:25.370Z,74.67
2023-03-24T02:39:23.889Z,75.26
2023-03-24T02:42:31.453Z,75.71
2023-03-24T02:45:26.716Z,75.87
2023-03-24T02:47:59.431Z,75.32
2023-03-24T02:50:44.547Z,75.09
2023-03-24T02:54:04.332Z,75.48
2023-03-24T02:56:45.827Z,76.10
2023-03-24T02:59:51.690Z,76.32
2023-03-24T03:02:57.558Z,77.15
2023-03-24T03:05:38.140Z,76.68
2023-03-24T03:08:13.070Z,76.05
2023-03-24T03:10:46.832Z,76.57
2023-03-24T03:13:26.505Z,77.24
2023-03-24T03:16:04.254Z,76.81
2023-03-24T03:18:50.669Z,76.62
2023-03-24T03:21:25.802Z,76.86
2023-03-24T03:24:00.791Z,76.84
2023-03-24T03:26:33.191Z,77.11
2023-03-24T03:29:12.409Z,77.16
2023-03-24T03:32:00.224Z,76.93
2023-03-24T03:34:48.085Z,76.95
2023-03-24T03:37:29.690Z,78.01
2023-03-24T03:40:12.748Z,78.13
2023-03-24T03:42:47.730Z,78.12
2023-03-24T03:45:18.180Z,78.03
2023-03-24T03:47:49.253Z,77.48
2023-03-24T03:50:18.889Z,77.47
2023-03-24T03:52:49.352Z,77.60
2023-03-24T03:55:19.411Z,77.76
2023-03-24T03:57:48.818Z,78.11
2023-03-24T04:00:39.396Z,77.99
2023-03-24T04:03:41.562Z,78.22
2023-03-24T04:06:19.950Z,79.92
2023-03-24T04:09:30.584Z,79.21
2023-03-24T04:12:34.938Z,78.54
2023-03-24T04:15:56.267Z,78.99
2023-03-24T04:18:52.881Z,79.48
2023-03-24T04:21:42.840Z,78.72
2023-03-24T04:24:40.829Z,78.35
2023-03-24T04:27:39.690Z,78.32
2023-03-24T04:30:16.595Z,78.55
2023-03-24T04:33:07.697Z,79.02
2023-03-24T04:35:49.849Z,79.89
2023-03-24T04:38:28.404Z,78.79
2023-03-24T04:41:18.514Z,78.61
2023-03-24T04:43:58.671Z,79.13
2023-03-24T04:46:27.990Z,77.99
2023-03-24T04:49:27.843Z,77.16
2023-03-24T04:51:59.492Z,76.97
2023-03-24T04:54:31.034Z,76.74
2023-03-24T04:57:07.641Z,77.21
2023-03-24T04:59:46.725Z,77.46
2023-03-24T05:02:17.269Z,77.30
2023-03-24T05:05:09.043Z,78.35
2023-03-24T05:07:44.907Z,78.01
2023-03-24T05:10:17.252Z,77.86
2023-03-24T05:12:53.225Z,77.30
2023-03-24T05:15:23.481Z,77.13
2023-03-24T05:17:59.132Z,77.61
2023-03-24T05:20:28.933Z,77.21
2023-03-24T05:23:06.709Z,77.29
2023-03-24T05:25:36.809Z,77.65
2023-03-24T05:28:08.001Z,77.97
2023-03-24T05:30:38.063Z,77.55
2023-03-24T05:33:22.994Z,77.44
2023-03-24T05:35:52.601Z,77.24
2023-03-24T05:38:23.003Z,76.58
2023-03-24T05:41:02.649Z,76.43
2023-03-24T05:43:38.171Z,76.39
2023-03-24T05:46:12.303Z,76.18
2023-03-24T05:48:43.772Z,75.79
2023-03-24T05:51:22.644Z,75.22
2023-03-24T05:54:01.586Z,75.08
2023-03-24T05:56:38.605Z,75.02
2023-03-24T05:59:32.854Z,74.56
2023-03-24T06:02:14.127Z,73.89
2023-03-24T06:05:08.831Z,72.79
2023-03-24T06:07:42.842Z,72.16
2023-03-24T06:10:14.930Z,71.79
2023-03-24T06:12:49.580Z,70.83
2023-03-24T06:15:19.899Z,70.23
2023-03-24T06:17:50.653Z,70.27
2023-03-24T06:20:36.447Z,69.87
2023-03-24T06:23:34.522Z,68.88
2023-03-24T06:26:11.914Z,67.58
2023-03-24T06:29:02.899Z,66.60
2023-03-24T06:31:40.385Z,66.59
2023-03-24T06:34:10.026Z,65.15
2023-03-24T06:36:40.552Z,64.15
2023-03-24T06:39:13.576Z,64.19
2023-03-24T06:41:44.834Z,64.49
2023-03-24T06:44:14.857Z,64.02
2023-03-24T06:46:46.619Z,62.80
2023-03-24T06:49:16.140Z,62.10
2023-03-24T06:51:45.368Z,60.74
2023-03-24T06:54:21.293Z,60.59
2023-03-24T06:56:50.725Z,59.93
2023-03-24T06:59:27.385Z,60.53
2023-03-24T07:02:05.350Z,58.55
2023-03-24T07:04:43.275Z,58.90
2023-03-24T07:07:57.041Z,57.89
2023-03-24T07:10:32.859Z,56.97
2023-03-24T07:13:03.898Z,56.61
2023-03-24T07:15:37.037Z,56.99
2023-03-24T07:18:07.216Z,56.37
2023-03-24T07:20:41.976Z,56.23
2023-03-24T07:23:17.687Z,55.53
2023-03-24T07:26:31.895Z,54.15
2023-03-24T07:29:11.503Z,51.72
2023-03-24T07:32:08.245Z,51.48
2023-03-24T07:34:39.818Z,52.23
2023-03-24T07:37:10.108Z,52.20
2023-03-24T07:39:39.229Z,52.29
2023-03-24T07:42:10.460Z,51.78
2023-03-24T07:44:52.534Z,50.94
2023-03-24T07:47:22.811Z,51.25
2023-03-24T07:49:53.031Z,50.63
2023-03-24T07:52:23.802Z,50.20
2023-03-24T07:54:55.092Z,49.84
2023-03-24T07:58:20.893Z,49.64
2023-03-24T08:01:44.587Z,48.61
2023-03-24T08:04:15.008Z,48.78
2023-03-24T08:07:02.029Z,47.92
2023-03-24T08:09:32.520Z,47.79
2023-03-24T08:12:09.934Z,48.08
2023-03-24T08:14:48.225Z,47.47
2023-03-24T08:17:17.394Z,47.34
2023-03-24T08:19:59.119Z,47.35
2023-03-24T08:22:30.700Z,46.69
2023-03-24T08:25:00.259Z,46.78
2023-03-24T08:27:29.691Z,45.62
2023-03-24T08:29:59.520Z,45.93
2023-03-24T08:32:28.687Z,45.64
2023-03-24T08:34:58.778Z,44.49
2023-03-24T08:37:27.911Z,44.65
2023-03-24T08:40:01.163Z,44.91
2023-03-24T08:42:31.508Z,44.43
2023-03-24T08:45:02.449Z,44.74
2023-03-24T08:47:32.359Z,45.53
2023-03-24T08:50:02.758Z,45.47
2023-03-24T08:52:32.438Z,45.38
2023-03-24T08:55:02.078Z,45.19
2023-03-24T08:57:32.280Z,44.54
2023-03-24T09:00:01.460Z,44.91
2023-03-24T09:02:35.319Z,44.40
2023-03-24T09:05:07.690Z,43.77
2023-03-24T09:07:38.245Z,43.35
2023-03-24T09:10:10.617Z,41.78
2023-03-24T09:12:40.826Z,41.46
2023-03-24T09:15:13.746Z,41.23
2023-03-24T09:17:43.695Z,40.08
2023-03-24T09:20:16.257Z,40.13
2023-03-24T09:23:10.188Z,39.10
2023-03-24T09:25:39.624Z,37.90
2023-03-24T09:28:09.880Z,37.33
2023-03-24T09:30:39.078Z,35.99
2023-03-24T09:33:08.463Z,35.94
2023-03-24T09:36:13.589Z,36.24
2023-03-24T09:38:46.785Z,34.16
2023-03-24T09:41:21.373Z,32.86
2023-03-24T09:44:09.444Z,32.82
2023-03-24T09:46:44.154Z,32.47
2023-03-24T09:49:19.260Z,32.89
2023-03-24T09:51:48.292Z,30.41
2023-03-24T09:55:07.577Z,30.32
2023-03-24T09:58:04.718Z,30.51
2023-03-24T10:01:05.955Z,30.35
2023-03-24T10:03:37.648Z,30.16
2023-03-24T10:06:35.285Z,28.81
2023-03-24T10:09:25.045Z,29.32
2023-03-24T10:12:05.800Z,29.92
2023-03-24T10:14:46.943Z,29.38
2023-03-24T10:17:27.780Z,27.61
2023-03-24T10:20:01.955Z,28.34
2023-03-24T10:22:56.937Z,28.65
2023-03-24T10:26:11.594Z,28.05
2023-03-24T10:29:17.562Z,29.03
2023-03-24T10:31:52.768Z,28.66
2023-03-24T10:34:26.937Z,28.11
2023-03-24T10:37:00.406Z,27.52
2023-03-24T10:39:44.238Z,28.15
2023-03-24T10:42:22.578Z,27.97
2023-03-24T10:44:53.261Z,26.90
2023-03-24T10:48:01.318Z,27.60
2023-03-24T10:50:49.851Z,27.37
2023-03-24T10:56:41.729Z,27.18
2023-03-24T10:59:41.173Z,27.99
2023-03-24T11:02:11.602Z,27.34
2023-03-24T11:04:45.294Z,27.55
2023-03-24T11:07:18.136Z,26.83
2023-03-24T11:10:13.894Z,26.01
2023-03-24T11:13:05.803Z,24.34
2023-03-24T11:15:39.686Z,25.71
2023-03-24T11:18:12.056Z,25.56
2023-03-24T11:20:53.524Z,25.09
2023-03-24T11:23:39.266Z,24.88
2023-03-24T11:26:28.964Z,24.56
2023-03-24T11:29:02.069Z,24.47
2023-03-24T11:31:35.648Z,23.74
2023-03-24T11:34:26.000Z,23.86
2023-03-24T11:36:59.619Z,23.92
2023-03-24T11:39:34.825Z,22.69
2023-03-24T11:42:12.437Z,23.39
2023-03-24T11:44:51.886Z,23.45
2023-03-24T11:47:35.896Z,22.39
2023-03-24T11:50:11.269Z,22.68
2023-03-24T11:52:50.074Z,23.11
2023-03-24T11:55:29.602Z,22.37
2023-03-24T11:58:15.053Z,22.85
2023-03-24T12:01:00.308Z,23.12
2023-03-24T12:04:06.510Z,23.28
2023-03-24T12:06:51.705Z,23.52
2023-03-24T12:09:49.739Z,23.09
2023-03-24T12:12:42.183Z,22.52
2023-03-24T12:15:42.366Z,22.98
2023-03-24T12:18:41.789Z,22.94
2023-03-24T12:21:29.437Z,22.77
2023-03-24T12:24:02.954Z,23.23
2023-03-24T12:26:33.784Z,22.75
2023-03-24T12:29:08.723Z,22.81
2023-03-24T12:32:08.033Z,22.67
2023-03-24T12:34:56.279Z,22.26
2023-03-24T12:38:08.058Z,21.98
2023-03-24T12:40:55.562Z,21.92
2023-03-24T12:44:25.848Z,21.74
2023-03-24T12:47:36.483Z,22.06
2023-03-24T12:50:41.058Z,21.82
2023-03-24T12:53:36.971Z,21.69
2023-03-24T12:56:16.567Z,21.18
2023-03-24T12:58:49.711Z,21.45
2023-03-24T13:01:45.280Z,21.17
2023-03-24T13:04:21.769Z,20.72
2023-03-24T13:07:15.610Z,20.82
2023-03-24T13:10:07.430Z,20.73
2023-03-24T13:12:44.548Z,20.65
2023-03-24T13:15:18.879Z,20.66
2023-03-24T13:18:08.963Z,20.73
2023-03-24T13:20:49.925Z,20.81
2023-03-24T13:23:43.728Z,20.39
2023-03-24T13:26:15.707Z,20.22
2023-03-24T13:29:09.173Z,20.55
2023-03-24T13:32:10.961Z,20.93
2023-03-24T13:34:49.437Z,20.68
2023-03-24T13:37:26.009Z,20.37
2023-03-24T13:40:01.076Z,20.67
2023-03-24T13:42:58.946Z,20.87
2023-03-24T13:45:43.001Z,20.96
2023-03-24T13:48:12.638Z,20.52
2023-03-24T13:50:48.121Z,20.43
2023-03-24T13:53:17.277Z,21.59
2023-03-24T13:55:52.800Z,21.27
2023-03-24T13:58:26.750Z,21.18
2023-03-24T14:01:17.563Z,21.17
2023-03-24T14:04:07.507Z,21.58
2023-03-24T14:07:23.189Z,22.23
2023-03-24T14:10:02.301Z,21.70
2023-03-24T14:12:33.890Z,21.52
2023-03-24T14:15:05.774Z,21.78
2023-03-24T14:17:35.152Z,21.21
2023-03-24T14:20:11.620Z,21.44
2023-03-24T14:22:45.550Z,21.66
2023-03-24T14:25:14.709Z,22.09
2023-03-24T14:27:47.260Z,22.23
2023-03-24T14:30:31.321Z,21.59
2023-03-24T14:33:03.532Z,21.86
2023-03-24T14:35:47.083Z,22.37
2023-03-24T14:38:16.366Z,22.33
2023-03-24T14:40:52.506Z,22.38
2023-03-24T14:43:27.748Z,22.68
2023-03-24T14:46:20.396Z,22.89
2023-03-24T14:49:09.973Z,23.30
2023-03-24T14:51:59.636Z,23.06
2023-03-24T14:54:44.436Z,23.60
2023-03-24T14:57:41.804Z,23.03
2023-03-24T15:00:32.305Z,23.21
2023-03-24T15:03:33.708Z,23.26
2023-03-24T15:06:14.806Z,23.82
2023-03-24T15:08:58.830Z,23.69
2023-03-24T15:11:37.606Z,23.67
2023-03-24T15:14:14.040Z,23.84
2023-03-24T15:16:43.692Z,23.80
2023-03-24T15:19:31.805Z,22.94
2023-03-24T15:22:04.857Z,23.77
2023-03-24T15:24:38.603Z,24.02
2023-03-24T15:27:16.306Z,23.84
2023-03-24T15:29:46.913Z,24.33
2023-03-24T15:32:23.474Z,24.58
2023-03-24T15:34:55.768Z,24.64
2023-03-24T15:37:36.744Z,24.76
2023-03-24T15:40:27.576Z,25.27
2023-03-24T15:42:59.552Z,25.77
2023-03-24T15:45:32.410Z,26.43
2023-03-24T15:48:34.914Z,27.10
2023-03-24T15:51:11.944Z,27.43
2023-03-24T15:53:44.827Z,28.08
2023-03-24T15:56:18.355Z,28.66
2023-03-24T15:59:09.606Z,29.02
2023-03-24T16:01:44.668Z,29.76
2023-03-24T16:04:21.989Z,30.65
2023-03-24T16:06:55.422Z,30.97
2023-03-24T16:09:27.819Z,31.63
2023-03-24T16:11:57.598Z,31.70
2023-03-24T16:14:28.888Z,31.93
2023-03-24T16:17:01.208Z,32.49
2023-03-24T16:19:30.976Z,32.68
2023-03-24T16:22:00.821Z,33.13
2023-03-24T16:24:30.566Z,33.24
2023-03-24T16:27:02.805Z,34.11
2023-03-24T16:29:32.916Z,34.44
2023-03-24T16:32:02.167Z,34.78
2023-03-24T16:34:32.089Z,34.87
2023-03-24T16:37:03.313Z,35.21
2023-03-24T16:39:32.833Z,35.22
2023-03-24T16:42:01.926Z,35.43
2023-03-24T16:44:31.378Z,36.97
2023-03-24T16:47:01.782Z,36.58
2023-03-24T16:49:31.849Z,36.76
2023-03-24T16:52:01.737Z,36.99
2023-03-24T16:54:30.976Z,37.38
2023-03-24T16:57:00.426Z,37.28
2023-03-24T16:59:29.616Z,37.97
2023-03-24T17:02:06.080Z,38.48
2023-03-24T17:04:35.749Z,38.62
2023-03-24T17:07:04.882Z,39.09
2023-03-24T17:09:35.927Z,39.70
2023-03-24T17:12:05.842Z,39.99
2023-03-24T17:14:35.124Z,40.01
2023-03-24T17:17:04.691Z,40.22
2023-03-24T17:19:38.751Z,40.37
2023-03-24T17:22:08.235Z,40.45
2023-03-24T17:24:40.098Z,40.32
2023-03-24T17:27:13.755Z,40.13
2023-03-24T17:29:43.072Z,41.17
2023-03-24T17:32:12.206Z,41.89
2023-03-24T17:34:47.716Z,42.07
2023-03-24T17:37:16.959Z,41.81
2023-03-24T17:39:47.026Z,42.67
2023-03-24T17:42:16.519Z,43.47
2023-03-24T17:44:48.781Z,43.29
2023-03-24T17:47:18.538Z,43.48
2023-03-24T17:49:47.873Z,43.95
2023-03-24T17:52:19.342Z,44.27
2023-03-24T17:54:55.027Z,44.92
2023-03-24T17:57:24.372Z,44.74
2023-03-24T17:59:53.774Z,44.48
2023-03-24T18:02:23.551Z,45.36
2023-03-24T18:04:54.769Z,45.60
2023-03-24T18:07:29.847Z,45.64
2023-03-24T18:09:59.652Z,44.58
2023-03-24T18:12:28.865Z,44.49
2023-03-24T18:14:58.851Z,45.90
2023-03-24T18:17:28.342Z,45.10
2023-03-24T18:19:59.872Z,44.81
2023-03-24T18:22:29.337Z,45.48
2023-03-24T18:24:58.850Z,44.81
2023-03-24T18:27:28.882Z,43.67
2023-03-24T18:29:58.007Z,44.04
2023-03-24T18:32:28.911Z,44.17
2023-03-24T18:35:01.141Z,44.65
2023-03-24T18:37:30.622Z,44.90
2023-03-24T18:40:01.215Z,44.70
2023-03-24T18:42:30.302Z,45.74
2023-03-24T18:44:59.343Z,44.87
2023-03-24T18:47:28.517Z,46.08
2023-03-24T18:49:58.138Z,45.81
2023-03-24T18:52:27.702Z,46.97
2023-03-24T18:54:57.268Z,47.49
2023-03-24T18:57:27.890Z,47.62
2023-03-24T18:59:57.703Z,47.03
2023-03-24T19:02:27.616Z,46.91
2023-03-24T19:04:56.860Z,48.05
2023-03-24T19:07:26.710Z,47.32
2023-03-24T19:09:57.167Z,48.37
2023-03-24T19:12:26.584Z,48.19
2023-03-24T19:14:56.498Z,48.23
2023-03-24T19:17:27.796Z,47.76
2023-03-24T19:19:58.494Z,49.11
2023-03-24T19:22:27.598Z,48.67
2023-03-24T19:24:56.965Z,49.73
2023-03-24T19:27:27.837Z,50.86
2023-03-24T19:29:59.985Z,50.79
2023-03-24T19:32:29.984Z,51.90
2023-03-24T19:34:59.166Z,51.35
2023-03-24T19:37:29.667Z,51.43
2023-03-24T19:40:00.234Z,52.18
2023-03-24T19:42:33.390Z,52.40
2023-03-24T19:45:05.301Z,52.30
2023-03-24T19:47:35.578Z,51.18
2023-03-24T19:50:07.557Z,52.33
2023-03-24T19:52:37.072Z,52.26
2023-03-24T19:55:07.194Z,52.53
2023-03-24T19:57:37.000Z,53.15
2023-03-24T20:00:09.659Z,53.37
2023-03-24T20:02:38.938Z,53.17
2023-03-24T20:05:09.864Z,52.30
2023-03-24T20:07:39.026Z,52.79
2023-03-24T20:10:09.409Z,52.46
2023-03-24T20:12:38.709Z,52.95
2023-03-24T20:15:08.810Z,53.31
2023-03-24T20:17:39.725Z,54.12
2023-03-24T20:20:11.509Z,54.47
2023-03-24T20:22:42.396Z,55.22
2023-03-24T20:25:14.661Z,53.29
2023-03-24T20:27:48.162Z,53.29
2023-03-24T20:30:20.520Z,54.07
2023-03-24T20:32:49.725Z,54.75
2023-03-24T20:35:19.008Z,55.13
2023-03-24T20:37:49.776Z,54.24
2023-03-24T20:40:21.300Z,54.60
2023-03-24T20:42:51.178Z,55.17
2023-03-24T20:45:20.283Z,54.86
2023-03-24T20:47:49.343Z,54.92
2023-03-24T20:50:20.554Z,55.74
2023-03-24T20:52:50.383Z,55.60
2023-03-24T20:55:22.504Z,55.40
2023-03-24T20:57:54.350Z,55.94
2023-03-24T21:00:24.615Z,56.66
2023-03-24T21:03:01.359Z,57.07
2023-03-24T21:05:31.002Z,56.54
2023-03-24T21:08:00.167Z,56.85
2023-03-24T21:10:31.183Z,57.08
2023-03-24T21:13:00.229Z,57.53
2023-03-24T21:15:29.418Z,57.27
2023-03-24T21:17:59.612Z,56.88
2023-03-24T21:20:31.194Z,56.32
2023-03-24T21:23:03.847Z,57.15
2023-03-24T21:25:34.348Z,56.48
2023-03-24T21:28:04.701Z,57.37
2023-03-24T21:30:33.873Z,57.85
2023-03-24T21:33:03.605Z,57.27
2023-03-24T21:35:33.387Z,56.92
2023-03-24T21:38:05.876Z,55.38
2023-03-24T21:40:34.968Z,54.40
2023-03-24T21:43:05.509Z,54.00
2023-03-24T21:45:36.873Z,53.20
2023-03-24T21:48:07.279Z,52.57
2023-03-24T21:50:39.705Z,53.18
2023-03-24T21:53:19.216Z,53.82
2023-03-24T21:55:52.157Z,54.58
2023-03-24T21:58:21.746Z,54.89
2023-03-24T22:00:55.302Z,55.17
2023-03-24T22:03:28.413Z,55.65
2023-03-24T22:05:58.073Z,57.50
2023-03-24T22:08:30.955Z,57.82
2023-03-24T22:11:04.648Z,57.88
2023-03-24T22:13:35.049Z,58.04
2023-03-24T22:16:04.817Z,58.56
2023-03-24T22:18:35.892Z,58.72
2023-03-24T22:21:08.040Z,58.99
2023-03-24T22:23:40.584Z,59.13
2023-03-24T22:26:14.473Z,59.18
2023-03-24T22:28:44.891Z,58.90
2023-03-24T22:31:17.035Z,59.71
2023-03-24T22:33:48.553Z,59.13
2023-03-24T22:36:18.223Z,60.07
2023-03-24T22:38:48.192Z,60.66
2023-03-24T22:41:17.521Z,60.32
2023-03-24T22:43:46.734Z,59.32
2023-03-24T22:46:16.964Z,59.80
2023-03-24T22:48:46.110Z,60.20
2023-03-24T22:51:19.592Z,59.94
2023-03-24T22:53:48.883Z,59.82
2023-03-24T22:56:18.444Z,59.62
2023-03-24T22:58:49.042Z,60.91
2023-03-24T23:01:18.725Z,60.03
2023-03-24T23:03:47.880Z,60.19
2023-03-24T23:06:16.999Z,59.80
2023-03-24T23:08:46.614Z,59.60
2023-03-24T23:11:16.926Z,59.64
2023-03-24T23:13:51.475Z,59.54
2023-03-24T23:16:21.515Z,58.39
2023-03-24T23:18:52.032Z,58.97
2023-03-24T23:21:21.286Z,58.83
2023-03-24T23:23:51.599Z,59.18
2023-03-24T23:26:44.574Z,58.47
2023-03-24T23:29:16.249Z,59.20
2023-03-24T23:31:45.235Z,57.96
2023-03-24T23:34:15.182Z,58.45
2023-03-24T23:36:45.430Z,58.31
2023-03-24T23:39:15.337Z,58.42
2023-03-24T23:41:46.916Z,58.61
2023-03-24T23:44:20.150Z,58.41
2023-03-24T23:46:49.934Z,58.14
2023-03-24T23:49:20.646Z,58.28
2023-03-24T23:51:50.201Z,59.15
2023-03-24T23:54:19.846Z,60.45
2023-03-24T23:56:51.865Z,60.09
2023-03-24T23:59:21.704Z,60.01
